FAB2287 SBMT-SBLS
Flight info
| Callsign | FAB2287 |
|---|---|
| Flight time | 1h 21m |
| Altitude | 9000 |
| Route | CORREDORES VFR CAMBUI N0200F90 DCT MOLVA DCT BISUD DCT |
| Aircraft | C95M/L-SDE3/C |
Departure
| Time | 2026-05-04 12:01 |
|---|---|
| Airport | Campo de Marte Airport (SBMT) |
Arrival
| Time | 2026-05-04 13:22 |
|---|---|
| Airport | Lagoa Santa Air Base (SBLS) |
| Time | Latitude | Longitude | Altitude | Speed | Heading |
|---|---|---|---|---|---|
| 2026-05-04 11:55 | -23.50753 | -46.63056 | 2373 ft | 0 kts | 10° |
| 2026-05-04 11:57 | -23.50751 | -46.63056 | 2373 ft | 2 kts | 20° |
| 2026-05-04 11:57 | -23.50756 | -46.63053 | 2373 ft | 2 kts | 226° |
| 2026-05-04 11:57 | -23.50786 | -46.63072 | 2373 ft | 8 kts | 215° |
| 2026-05-04 11:57 | -23.50787 | -46.63168 | 2373 ft | 17 kts | 276° |
| 2026-05-04 11:58 | -23.50794 | -46.63287 | 2373 ft | 15 kts | 212° |
| 2026-05-04 11:58 | -23.50853 | -46.63307 | 2373 ft | 6 kts | 220° |
| 2026-05-04 11:58 | -23.50817 | -46.63298 | 2373 ft | 16 kts | 3° |
| 2026-05-04 11:58 | -23.50779 | -46.63227 | 2373 ft | 16 kts | 95° |
| 2026-05-04 11:59 | -23.50798 | -46.63046 | 2373 ft | 24 kts | 98° |
| 2026-05-04 11:59 | -23.50821 | -46.62863 | 2373 ft | 23 kts | 113° |
| 2026-05-04 11:59 | -23.50922 | -46.62825 | 2373 ft | 18 kts | 188° |
| 2026-05-04 11:59 | -23.51030 | -46.62840 | 2373 ft | 16 kts | 199° |
| 2026-05-04 12:00 | -23.51047 | -46.62886 | 2373 ft | 9 kts | 279° |
| 2026-05-04 12:00 | -23.50998 | -46.63189 | 2373 ft | 78 kts | 281° |
| 2026-05-04 12:00 | -23.50877 | -46.63967 | 2444 ft | 119 kts | 280° |
| 2026-05-04 12:00 | -23.50714 | -46.64914 | 2710 ft | 137 kts | 284° |
| 2026-05-04 12:01 | -23.50489 | -46.65984 | 3008 ft | 153 kts | 283° |
| 2026-05-04 12:01 | -23.50289 | -46.67165 | 3271 ft | 165 kts | 283° |
| 2026-05-04 12:02 | -23.44694 | -46.72729 | 4280 ft | 212 kts | 317° |
| 2026-05-04 12:03 | -23.43647 | -46.73878 | 4280 ft | 217 kts | 321° |
| 2026-05-04 12:03 | -23.42325 | -46.74670 | 4301 ft | 215 kts | 345° |
| 2026-05-04 12:03 | -23.40875 | -46.74999 | 4290 ft | 217 kts | 356° |
| 2026-05-04 12:03 | -23.39355 | -46.75104 | 4281 ft | 218 kts | 1° |
| 2026-05-04 12:04 | -23.37832 | -46.75101 | 4277 ft | 219 kts | 3° |
| 2026-05-04 12:04 | -23.36308 | -46.75057 | 4270 ft | 220 kts | 4° |
| 2026-05-04 12:04 | -23.34778 | -46.75000 | 4268 ft | 220 kts | 4° |
| 2026-05-04 12:04 | -23.33759 | -46.74962 | 4269 ft | 220 kts | 4° |
| 2026-05-04 12:05 | -23.31710 | -46.74891 | 4272 ft | 220 kts | 4° |
| 2026-05-04 12:05 | -23.30677 | -46.74858 | 4268 ft | 220 kts | 4° |
| 2026-05-04 12:05 | -23.29170 | -46.74816 | 4271 ft | 220 kts | 3° |
| 2026-05-04 12:05 | -23.27629 | -46.74772 | 4267 ft | 220 kts | 4° |
| 2026-05-04 12:06 | -23.25729 | -46.74158 | 4289 ft | 215 kts | 30° |
| 2026-05-04 12:06 | -23.24895 | -46.73568 | 4282 ft | 215 kts | 37° |
| 2026-05-04 12:06 | -23.23742 | -46.72528 | 4276 ft | 216 kts | 43° |
| 2026-05-04 12:06 | -23.22650 | -46.71385 | 4272 ft | 216 kts | 46° |
| 2026-05-04 12:07 | -23.21615 | -46.70229 | 4268 ft | 216 kts | 47° |
| 2026-05-04 12:07 | -23.20573 | -46.69037 | 4264 ft | 216 kts | 47° |
| 2026-05-04 12:07 | -23.19543 | -46.67851 | 4253 ft | 217 kts | 48° |
| 2026-05-04 12:07 | -23.18509 | -46.66659 | 4251 ft | 217 kts | 48° |
| 2026-05-04 12:08 | -23.17467 | -46.65458 | 4250 ft | 217 kts | 48° |
| 2026-05-04 12:08 | -23.16437 | -46.64273 | 4249 ft | 218 kts | 48° |
| 2026-05-04 12:08 | -23.15397 | -46.63077 | 4258 ft | 217 kts | 47° |
| 2026-05-04 12:08 | -23.14361 | -46.61890 | 4261 ft | 216 kts | 47° |
| 2026-05-04 12:09 | -23.13329 | -46.60711 | 4264 ft | 216 kts | 47° |
| 2026-05-04 12:09 | -23.12290 | -46.59526 | 4265 ft | 215 kts | 47° |
| 2026-05-04 12:09 | -23.11256 | -46.58336 | 4266 ft | 215 kts | 49° |
| 2026-05-04 12:09 | -23.10308 | -46.57078 | 4273 ft | 215 kts | 53° |
| 2026-05-04 12:10 | -23.09432 | -46.55761 | 4275 ft | 215 kts | 55° |
| 2026-05-04 12:10 | -23.08602 | -46.54428 | 4268 ft | 215 kts | 57° |
| 2026-05-04 12:10 | -23.07781 | -46.53059 | 4268 ft | 216 kts | 57° |
| 2026-05-04 12:10 | -23.06968 | -46.51682 | 4268 ft | 216 kts | 57° |
| 2026-05-04 12:11 | -23.06159 | -46.50303 | 4267 ft | 215 kts | 57° |
| 2026-05-04 12:11 | -23.05363 | -46.48940 | 4269 ft | 216 kts | 57° |
| 2026-05-04 12:11 | -23.04557 | -46.47557 | 4265 ft | 216 kts | 57° |
| 2026-05-04 12:11 | -23.03756 | -46.46183 | 4266 ft | 216 kts | 57° |
| 2026-05-04 12:12 | -23.02953 | -46.44808 | 4264 ft | 216 kts | 57° |
| 2026-05-04 12:12 | -23.02149 | -46.43433 | 4264 ft | 216 kts | 58° |
| 2026-05-04 12:12 | -23.01340 | -46.42047 | 4263 ft | 216 kts | 58° |
| 2026-05-04 12:12 | -23.00533 | -46.40664 | 4262 ft | 217 kts | 58° |
| 2026-05-04 12:13 | -22.99730 | -46.39280 | 4262 ft | 216 kts | 57° |
| 2026-05-04 12:14 | -22.94082 | -46.29619 | 4266 ft | 217 kts | 57° |
| 2026-05-04 12:15 | -22.93167 | -46.28315 | 4273 ft | 216 kts | 47° |
| 2026-05-04 12:15 | -22.92067 | -46.27186 | 4272 ft | 217 kts | 41° |
| 2026-05-04 12:15 | -22.90896 | -46.26170 | 4289 ft | 216 kts | 38° |
| 2026-05-04 12:15 | -22.89714 | -46.25228 | 4522 ft | 206 kts | 36° |
| 2026-05-04 12:16 | -22.88559 | -46.24345 | 4762 ft | 199 kts | 36° |
| 2026-05-04 12:16 | -22.87428 | -46.23495 | 4926 ft | 199 kts | 35° |
| 2026-05-04 12:16 | -22.86275 | -46.22635 | 5032 ft | 201 kts | 35° |
| 2026-05-04 12:16 | -22.85097 | -46.21758 | 5034 ft | 207 kts | 35° |
| 2026-05-04 12:17 | -22.83906 | -46.20873 | 5068 ft | 209 kts | 35° |
| 2026-05-04 12:17 | -22.82723 | -46.19995 | 5285 ft | 203 kts | 36° |
| 2026-05-04 12:17 | -22.81573 | -46.19142 | 5475 ft | 200 kts | 36° |
| 2026-05-04 12:17 | -22.80434 | -46.18297 | 5667 ft | 198 kts | 36° |
| 2026-05-04 12:18 | -22.79301 | -46.17456 | 5867 ft | 197 kts | 36° |
| 2026-05-04 12:18 | -22.78170 | -46.16616 | 6062 ft | 197 kts | 35° |
| 2026-05-04 12:18 | -22.77032 | -46.15770 | 6263 ft | 197 kts | 35° |
| 2026-05-04 12:18 | -22.75908 | -46.14935 | 6461 ft | 197 kts | 35° |
| 2026-05-04 12:19 | -22.74773 | -46.14093 | 6661 ft | 198 kts | 35° |
| 2026-05-04 12:19 | -22.73634 | -46.13248 | 6861 ft | 198 kts | 35° |
| 2026-05-04 12:19 | -22.72501 | -46.12408 | 7060 ft | 199 kts | 35° |
| 2026-05-04 12:19 | -22.71347 | -46.11553 | 7262 ft | 199 kts | 35° |
| 2026-05-04 12:20 | -22.70207 | -46.10709 | 7462 ft | 199 kts | 35° |
| 2026-05-04 12:20 | -22.69065 | -46.09863 | 7662 ft | 200 kts | 35° |
| 2026-05-04 12:20 | -22.67922 | -46.09015 | 7861 ft | 200 kts | 35° |
| 2026-05-04 12:20 | -22.66769 | -46.08173 | 8056 ft | 201 kts | 35° |
| 2026-05-04 12:21 | -22.65586 | -46.07341 | 8258 ft | 202 kts | 34° |
| 2026-05-04 12:21 | -22.64405 | -46.06527 | 8456 ft | 203 kts | 34° |
| 2026-05-04 12:21 | -22.63204 | -46.05708 | 8656 ft | 204 kts | 34° |
| 2026-05-04 12:21 | -22.62000 | -46.04889 | 8854 ft | 206 kts | 33° |
| 2026-05-04 12:22 | -22.60780 | -46.04063 | 9052 ft | 207 kts | 33° |
| 2026-05-04 12:22 | -22.59538 | -46.03224 | 9193 ft | 211 kts | 33° |
| 2026-05-04 12:22 | -22.58278 | -46.02372 | 9257 ft | 218 kts | 33° |
| 2026-05-04 12:22 | -22.56976 | -46.01492 | 9273 ft | 224 kts | 33° |
| 2026-05-04 12:23 | -22.55648 | -46.00596 | 9276 ft | 229 kts | 34° |
| 2026-05-04 12:23 | -22.54293 | -45.99683 | 9276 ft | 232 kts | 34° |
| 2026-05-04 12:23 | -22.52899 | -45.98744 | 9275 ft | 234 kts | 34° |
| 2026-05-04 12:23 | -22.51517 | -45.97813 | 9275 ft | 235 kts | 34° |
| 2026-05-04 12:24 | -22.50137 | -45.96882 | 9274 ft | 234 kts | 34° |
| 2026-05-04 12:24 | -22.48764 | -45.95945 | 9279 ft | 230 kts | 32° |
| 2026-05-04 12:24 | -22.47420 | -45.95037 | 9281 ft | 227 kts | 31° |
| 2026-05-04 12:24 | -22.46084 | -45.94139 | 9280 ft | 225 kts | 31° |
| 2026-05-04 12:25 | -22.44763 | -45.93256 | 9275 ft | 224 kts | 32° |
| 2026-05-04 12:25 | -22.43431 | -45.92364 | 9276 ft | 224 kts | 32° |
| 2026-05-04 12:25 | -22.42118 | -45.91481 | 9277 ft | 224 kts | 32° |
| 2026-05-04 12:25 | -22.40798 | -45.90593 | 9277 ft | 223 kts | 32° |
| 2026-05-04 12:26 | -22.39466 | -45.89696 | 9277 ft | 223 kts | 32° |
| 2026-05-04 12:26 | -22.38151 | -45.88810 | 9277 ft | 223 kts | 32° |
| 2026-05-04 12:26 | -22.36844 | -45.87931 | 9277 ft | 223 kts | 32° |
| 2026-05-04 12:26 | -22.35499 | -45.87025 | 9135 ft | 228 kts | 31° |
| 2026-05-04 12:27 | -22.34157 | -45.86121 | 9038 ft | 230 kts | 31° |
| 2026-05-04 12:27 | -22.32797 | -45.85207 | 9009 ft | 228 kts | 31° |
| 2026-05-04 12:27 | -22.31463 | -45.84309 | 9003 ft | 226 kts | 30° |
| 2026-05-04 12:27 | -22.30128 | -45.83409 | 9002 ft | 225 kts | 31° |
| 2026-05-04 12:28 | -22.28829 | -45.82457 | 9006 ft | 225 kts | 34° |
| 2026-05-04 12:28 | -22.27572 | -45.81460 | 9002 ft | 225 kts | 35° |
| 2026-05-04 12:28 | -22.26323 | -45.80428 | 9002 ft | 225 kts | 36° |
| 2026-05-04 12:28 | -22.25095 | -45.79391 | 9004 ft | 225 kts | 36° |
| 2026-05-04 12:29 | -22.23867 | -45.78342 | 9003 ft | 224 kts | 37° |
| 2026-05-04 12:29 | -22.22639 | -45.77306 | 9007 ft | 226 kts | 40° |
| 2026-05-04 12:29 | -22.21412 | -45.76252 | 9008 ft | 228 kts | 41° |
| 2026-05-04 12:29 | -22.20230 | -45.75229 | 9008 ft | 229 kts | 41° |
| 2026-05-04 12:30 | -22.19134 | -45.74278 | 9010 ft | 230 kts | 41° |
| 2026-05-04 12:30 | -22.17932 | -45.73235 | 9010 ft | 230 kts | 41° |
| 2026-05-04 12:30 | -22.16697 | -45.72166 | 9009 ft | 231 kts | 41° |
| 2026-05-04 12:30 | -22.15443 | -45.71081 | 9009 ft | 231 kts | 41° |
| 2026-05-04 12:31 | -22.14178 | -45.69988 | 9009 ft | 231 kts | 41° |
| 2026-05-04 12:31 | -22.12927 | -45.68908 | 9008 ft | 231 kts | 41° |
| 2026-05-04 12:31 | -22.11668 | -45.67821 | 9010 ft | 231 kts | 41° |
| 2026-05-04 12:31 | -22.10419 | -45.66743 | 9009 ft | 231 kts | 41° |
| 2026-05-04 12:32 | -22.09167 | -45.65663 | 9010 ft | 231 kts | 41° |
| 2026-05-04 12:32 | -22.06649 | -45.63492 | 9009 ft | 231 kts | 41° |
| 2026-05-04 12:32 | -22.05380 | -45.62398 | 9008 ft | 231 kts | 41° |
| 2026-05-04 12:33 | -22.04140 | -45.61330 | 9009 ft | 231 kts | 41° |
| 2026-05-04 12:33 | -22.02870 | -45.60236 | 9009 ft | 231 kts | 41° |
| 2026-05-04 12:33 | -22.01620 | -45.59159 | 9008 ft | 231 kts | 41° |
| 2026-05-04 12:33 | -22.00356 | -45.58071 | 9008 ft | 231 kts | 41° |
| 2026-05-04 12:34 | -21.99093 | -45.56984 | 9009 ft | 231 kts | 41° |
| 2026-05-04 12:34 | -21.97850 | -45.55914 | 9009 ft | 231 kts | 41° |
| 2026-05-04 12:34 | -21.96578 | -45.54827 | 9009 ft | 231 kts | 40° |
| 2026-05-04 12:34 | -21.95317 | -45.53768 | 9007 ft | 231 kts | 40° |
| 2026-05-04 12:35 | -21.94033 | -45.52703 | 9007 ft | 231 kts | 40° |
| 2026-05-04 12:35 | -21.92766 | -45.51657 | 9007 ft | 231 kts | 39° |
| 2026-05-04 12:35 | -21.91482 | -45.50599 | 9009 ft | 231 kts | 39° |
| 2026-05-04 12:35 | -21.90208 | -45.49551 | 9007 ft | 231 kts | 39° |
| 2026-05-04 12:36 | -21.88928 | -45.48500 | 9008 ft | 231 kts | 39° |
| 2026-05-04 12:36 | -21.87659 | -45.47458 | 9010 ft | 231 kts | 39° |
| 2026-05-04 12:36 | -21.86378 | -45.46407 | 9006 ft | 231 kts | 39° |
| 2026-05-04 12:36 | -21.85111 | -45.45368 | 9007 ft | 231 kts | 39° |
| 2026-05-04 12:37 | -21.83832 | -45.44320 | 9008 ft | 231 kts | 39° |
| 2026-05-04 12:37 | -21.82542 | -45.43262 | 9008 ft | 231 kts | 39° |
| 2026-05-04 12:37 | -21.81275 | -45.42224 | 9008 ft | 231 kts | 39° |
| 2026-05-04 12:37 | -21.79989 | -45.41170 | 9008 ft | 231 kts | 39° |
| 2026-05-04 12:38 | -21.78714 | -45.40124 | 9005 ft | 230 kts | 39° |
| 2026-05-04 12:38 | -21.77444 | -45.39083 | 9002 ft | 229 kts | 39° |
| 2026-05-04 12:38 | -21.76174 | -45.38042 | 8999 ft | 228 kts | 39° |
| 2026-05-04 12:38 | -21.74918 | -45.37014 | 8997 ft | 227 kts | 39° |
| 2026-05-04 12:39 | -21.73661 | -45.35985 | 8996 ft | 226 kts | 39° |
| 2026-05-04 12:39 | -21.72415 | -45.34966 | 8996 ft | 226 kts | 38° |
| 2026-05-04 12:39 | -21.71162 | -45.33942 | 8995 ft | 225 kts | 38° |
| 2026-05-04 12:39 | -21.69905 | -45.32914 | 8995 ft | 225 kts | 38° |
| 2026-05-04 12:40 | -21.68658 | -45.31895 | 8995 ft | 225 kts | 38° |
| 2026-05-04 12:40 | -21.67419 | -45.30883 | 8995 ft | 225 kts | 38° |
| 2026-05-04 12:40 | -21.66174 | -45.29865 | 8995 ft | 225 kts | 38° |
| 2026-05-04 12:40 | -21.64930 | -45.28849 | 8995 ft | 225 kts | 38° |
| 2026-05-04 12:41 | -21.63686 | -45.27832 | 8994 ft | 225 kts | 38° |
| 2026-05-04 12:41 | -21.62444 | -45.26818 | 8994 ft | 225 kts | 38° |
| 2026-05-04 12:41 | -21.61192 | -45.25796 | 8995 ft | 225 kts | 38° |
| 2026-05-04 12:41 | -21.60369 | -45.25124 | 8994 ft | 225 kts | 38° |
| 2026-05-04 12:42 | -21.58707 | -45.23767 | 8993 ft | 225 kts | 38° |
| 2026-05-04 12:42 | -21.57456 | -45.22746 | 8994 ft | 225 kts | 39° |
| 2026-05-04 12:42 | -21.56627 | -45.22070 | 8993 ft | 225 kts | 39° |
| 2026-05-04 12:42 | -21.54975 | -45.20723 | 8993 ft | 225 kts | 39° |
| 2026-05-04 12:43 | -21.53721 | -45.19700 | 8993 ft | 225 kts | 39° |
| 2026-05-04 12:43 | -21.52895 | -45.19027 | 8993 ft | 225 kts | 39° |
| 2026-05-04 12:43 | -21.51653 | -45.18014 | 8996 ft | 225 kts | 39° |
| 2026-05-04 12:43 | -21.50405 | -45.16997 | 8999 ft | 225 kts | 39° |
| 2026-05-04 12:44 | -21.49156 | -45.15979 | 9000 ft | 225 kts | 39° |
| 2026-05-04 12:44 | -21.47501 | -45.14631 | 9000 ft | 225 kts | 39° |
| 2026-05-04 12:44 | -21.46669 | -45.13953 | 9001 ft | 225 kts | 39° |
| 2026-05-04 12:44 | -21.45417 | -45.12934 | 9002 ft | 225 kts | 39° |
| 2026-05-04 12:45 | -21.44165 | -45.11914 | 9004 ft | 225 kts | 39° |
| 2026-05-04 12:45 | -21.42927 | -45.10907 | 8997 ft | 225 kts | 39° |
| 2026-05-04 12:45 | -21.41682 | -45.09893 | 8996 ft | 225 kts | 39° |
| 2026-05-04 12:45 | -21.40422 | -45.08868 | 8994 ft | 225 kts | 39° |
| 2026-05-04 12:46 | -21.39175 | -45.07854 | 8995 ft | 225 kts | 39° |
| 2026-05-04 12:46 | -21.37940 | -45.06850 | 8997 ft | 225 kts | 39° |
| 2026-05-04 12:46 | -21.36693 | -45.05836 | 8995 ft | 225 kts | 39° |
| 2026-05-04 12:46 | -21.35450 | -45.04825 | 8996 ft | 225 kts | 39° |
| 2026-05-04 12:47 | -21.34206 | -45.03815 | 9007 ft | 225 kts | 39° |
| 2026-05-04 12:47 | -21.32955 | -45.02799 | 9011 ft | 225 kts | 39° |
| 2026-05-04 12:47 | -21.31691 | -45.01772 | 9016 ft | 226 kts | 39° |
| 2026-05-04 12:47 | -21.30438 | -45.00754 | 9019 ft | 226 kts | 39° |
| 2026-05-04 12:48 | -21.29186 | -44.99737 | 9019 ft | 227 kts | 39° |
| 2026-05-04 12:48 | -21.27928 | -44.98715 | 9066 ft | 227 kts | 39° |
| 2026-05-04 12:48 | -21.26667 | -44.97691 | 9073 ft | 229 kts | 39° |
| 2026-05-04 12:48 | -21.25393 | -44.96657 | 9055 ft | 230 kts | 39° |
| 2026-05-04 12:49 | -21.24116 | -44.95622 | 9057 ft | 231 kts | 39° |
| 2026-05-04 12:49 | -21.22828 | -44.94577 | 9062 ft | 231 kts | 39° |
| 2026-05-04 12:49 | -21.21550 | -44.93540 | 9065 ft | 231 kts | 39° |
| 2026-05-04 12:49 | -21.20263 | -44.92499 | 9098 ft | 230 kts | 39° |
| 2026-05-04 12:50 | -21.18988 | -44.91467 | 9121 ft | 230 kts | 39° |
| 2026-05-04 12:50 | -21.17727 | -44.90445 | 9132 ft | 230 kts | 39° |
| 2026-05-04 12:50 | -21.16443 | -44.89404 | 9137 ft | 230 kts | 39° |
| 2026-05-04 12:50 | -21.15152 | -44.88357 | 9138 ft | 231 kts | 39° |
| 2026-05-04 12:51 | -21.13884 | -44.87329 | 9136 ft | 232 kts | 39° |
| 2026-05-04 12:51 | -21.12586 | -44.86277 | 9135 ft | 232 kts | 39° |
| 2026-05-04 12:51 | -21.11304 | -44.85239 | 9133 ft | 232 kts | 39° |
| 2026-05-04 12:51 | -21.10020 | -44.84199 | 9130 ft | 232 kts | 39° |
| 2026-05-04 12:52 | -21.08731 | -44.83156 | 9120 ft | 233 kts | 39° |
| 2026-05-04 12:52 | -21.07438 | -44.82110 | 9110 ft | 233 kts | 39° |
| 2026-05-04 12:52 | -21.06129 | -44.81051 | 9107 ft | 233 kts | 39° |
| 2026-05-04 12:52 | -21.04839 | -44.80008 | 9106 ft | 233 kts | 39° |
| 2026-05-04 12:53 | -21.03563 | -44.78973 | 9106 ft | 232 kts | 39° |
| 2026-05-04 12:53 | -21.02274 | -44.77921 | 9105 ft | 232 kts | 39° |
| 2026-05-04 12:53 | -21.00989 | -44.76869 | 9104 ft | 232 kts | 39° |
| 2026-05-04 12:53 | -20.99701 | -44.75812 | 9115 ft | 232 kts | 39° |
| 2026-05-04 12:54 | -20.98432 | -44.74771 | 9118 ft | 232 kts | 39° |
| 2026-05-04 12:54 | -20.97150 | -44.73718 | 9119 ft | 232 kts | 39° |
| 2026-05-04 12:54 | -20.95863 | -44.72661 | 9120 ft | 232 kts | 39° |
| 2026-05-04 12:54 | -20.94574 | -44.71602 | 9119 ft | 232 kts | 39° |
| 2026-05-04 12:55 | -20.93296 | -44.70553 | 9119 ft | 232 kts | 39° |
| 2026-05-04 12:55 | -20.92056 | -44.69535 | 9119 ft | 232 kts | 39° |
| 2026-05-04 12:55 | -20.90709 | -44.68429 | 9104 ft | 233 kts | 39° |
| 2026-05-04 12:55 | -20.89427 | -44.67376 | 9101 ft | 234 kts | 39° |
| 2026-05-04 12:56 | -20.88138 | -44.66319 | 9098 ft | 234 kts | 39° |
| 2026-05-04 12:56 | -20.86840 | -44.65254 | 9095 ft | 235 kts | 39° |
| 2026-05-04 12:56 | -20.85539 | -44.64187 | 9092 ft | 235 kts | 39° |
| 2026-05-04 12:56 | -20.84237 | -44.63119 | 9091 ft | 235 kts | 39° |
| 2026-05-04 12:57 | -20.82951 | -44.62064 | 9091 ft | 235 kts | 39° |
| 2026-05-04 12:57 | -20.81647 | -44.60995 | 9091 ft | 235 kts | 39° |
| 2026-05-04 12:57 | -20.80355 | -44.59937 | 9091 ft | 235 kts | 39° |
| 2026-05-04 12:57 | -20.79056 | -44.58872 | 9091 ft | 235 kts | 39° |
| 2026-05-04 12:58 | -20.77747 | -44.57799 | 9090 ft | 235 kts | 39° |
| 2026-05-04 12:58 | -20.76450 | -44.56737 | 9090 ft | 235 kts | 39° |
| 2026-05-04 12:58 | -20.75156 | -44.55677 | 9090 ft | 235 kts | 39° |
| 2026-05-04 12:58 | -20.73852 | -44.54610 | 9088 ft | 235 kts | 39° |
| 2026-05-04 12:59 | -20.72561 | -44.53554 | 9082 ft | 235 kts | 39° |
| 2026-05-04 12:59 | -20.71254 | -44.52484 | 9084 ft | 235 kts | 39° |
| 2026-05-04 12:59 | -20.69969 | -44.51433 | 9085 ft | 235 kts | 39° |
| 2026-05-04 12:59 | -20.68665 | -44.50365 | 9086 ft | 235 kts | 39° |
| 2026-05-04 13:00 | -20.67361 | -44.49299 | 9086 ft | 235 kts | 39° |
| 2026-05-04 13:00 | -20.66076 | -44.48248 | 9086 ft | 235 kts | 39° |
| 2026-05-04 13:00 | -20.64770 | -44.47181 | 9086 ft | 235 kts | 39° |
| 2026-05-04 13:00 | -20.63464 | -44.46114 | 9086 ft | 235 kts | 39° |
| 2026-05-04 13:01 | -20.62174 | -44.45059 | 9085 ft | 235 kts | 39° |
| 2026-05-04 13:01 | -20.60869 | -44.43993 | 9085 ft | 235 kts | 39° |
| 2026-05-04 13:01 | -20.59566 | -44.42929 | 9085 ft | 235 kts | 39° |
| 2026-05-04 13:01 | -20.58285 | -44.41883 | 9086 ft | 235 kts | 39° |
| 2026-05-04 13:02 | -20.56980 | -44.40818 | 9083 ft | 235 kts | 39° |
| 2026-05-04 13:02 | -20.55675 | -44.39753 | 9075 ft | 236 kts | 39° |
| 2026-05-04 13:02 | -20.54381 | -44.38697 | 9073 ft | 236 kts | 39° |
| 2026-05-04 13:02 | -20.53070 | -44.37627 | 9072 ft | 236 kts | 39° |
| 2026-05-04 13:03 | -20.51766 | -44.36563 | 9072 ft | 236 kts | 39° |
| 2026-05-04 13:03 | -20.50473 | -44.35509 | 9071 ft | 236 kts | 39° |
| 2026-05-04 13:03 | -20.49171 | -44.34447 | 9071 ft | 236 kts | 39° |
| 2026-05-04 13:03 | -20.47862 | -44.33380 | 9071 ft | 236 kts | 39° |
| 2026-05-04 13:04 | -20.46558 | -44.32316 | 9071 ft | 236 kts | 39° |
| 2026-05-04 13:04 | -20.45236 | -44.31306 | 9070 ft | 237 kts | 32° |
| 2026-05-04 13:04 | -20.43725 | -44.30586 | 9075 ft | 238 kts | 21° |
| 2026-05-04 13:04 | -20.42129 | -44.30082 | 9073 ft | 239 kts | 16° |
| 2026-05-04 13:05 | -20.40517 | -44.29695 | 9071 ft | 239 kts | 13° |
| 2026-05-04 13:05 | -20.38876 | -44.29362 | 9075 ft | 239 kts | 12° |
| 2026-05-04 13:05 | -20.37237 | -44.29060 | 9067 ft | 240 kts | 11° |
| 2026-05-04 13:05 | -20.35594 | -44.28773 | 9065 ft | 240 kts | 11° |
| 2026-05-04 13:06 | -20.33940 | -44.28492 | 9064 ft | 240 kts | 11° |
| 2026-05-04 13:06 | -20.32284 | -44.28214 | 9064 ft | 240 kts | 11° |
| 2026-05-04 13:06 | -20.30636 | -44.27940 | 9063 ft | 240 kts | 11° |
| 2026-05-04 13:06 | -20.28970 | -44.27663 | 9063 ft | 240 kts | 10° |
| 2026-05-04 13:07 | -20.27332 | -44.27391 | 9063 ft | 240 kts | 10° |
| 2026-05-04 13:07 | -20.25679 | -44.27117 | 9062 ft | 240 kts | 10° |
| 2026-05-04 13:07 | -20.24040 | -44.26845 | 9062 ft | 240 kts | 11° |
| 2026-05-04 13:07 | -20.22392 | -44.26572 | 9062 ft | 240 kts | 11° |
| 2026-05-04 13:08 | -20.20739 | -44.26298 | 9061 ft | 240 kts | 10° |
| 2026-05-04 13:08 | -20.19085 | -44.26024 | 9058 ft | 240 kts | 10° |
| 2026-05-04 13:08 | -20.17443 | -44.25752 | 9056 ft | 240 kts | 10° |
| 2026-05-04 13:08 | -20.15798 | -44.25480 | 9056 ft | 240 kts | 10° |
| 2026-05-04 13:09 | -20.14142 | -44.25206 | 9055 ft | 240 kts | 10° |
| 2026-05-04 13:09 | -20.12504 | -44.24934 | 9055 ft | 240 kts | 10° |
| 2026-05-04 13:09 | -20.10842 | -44.24659 | 9055 ft | 240 kts | 10° |
| 2026-05-04 13:09 | -20.09207 | -44.24389 | 9054 ft | 240 kts | 10° |
| 2026-05-04 13:10 | -20.07551 | -44.24115 | 9054 ft | 240 kts | 10° |
| 2026-05-04 13:10 | -20.05919 | -44.23845 | 9055 ft | 240 kts | 10° |
| 2026-05-04 13:10 | -20.04261 | -44.23571 | 9061 ft | 239 kts | 10° |
| 2026-05-04 13:10 | -20.02610 | -44.23298 | 9061 ft | 239 kts | 10° |
| 2026-05-04 13:11 | -20.00978 | -44.23028 | 9061 ft | 240 kts | 10° |
| 2026-05-04 13:11 | -19.99318 | -44.22753 | 9060 ft | 240 kts | 10° |
| 2026-05-04 13:11 | -19.97673 | -44.22482 | 9060 ft | 240 kts | 10° |
| 2026-05-04 13:11 | -19.96030 | -44.22210 | 9060 ft | 240 kts | 10° |
| 2026-05-04 13:12 | -19.94388 | -44.21939 | 9059 ft | 240 kts | 10° |
| 2026-05-04 13:12 | -19.92729 | -44.21665 | 9059 ft | 240 kts | 10° |
| 2026-05-04 13:12 | -19.91081 | -44.21393 | 9059 ft | 240 kts | 10° |
| 2026-05-04 13:12 | -19.89445 | -44.21123 | 9059 ft | 240 kts | 10° |
| 2026-05-04 13:13 | -19.87791 | -44.20850 | 9004 ft | 237 kts | 10° |
| 2026-05-04 13:13 | -19.86148 | -44.20578 | 8732 ft | 240 kts | 10° |
| 2026-05-04 13:13 | -19.84501 | -44.20307 | 8481 ft | 241 kts | 10° |
| 2026-05-04 13:13 | -19.82851 | -44.20035 | 8228 ft | 237 kts | 10° |
| 2026-05-04 13:14 | -19.81241 | -44.19771 | 7973 ft | 231 kts | 11° |
| 2026-05-04 13:14 | -19.79675 | -44.19513 | 7721 ft | 227 kts | 10° |
| 2026-05-04 13:14 | -19.78119 | -44.19256 | 7468 ft | 224 kts | 10° |
| 2026-05-04 13:14 | -19.76585 | -44.19003 | 7216 ft | 222 kts | 10° |
| 2026-05-04 13:15 | -19.75072 | -44.18753 | 6968 ft | 222 kts | 10° |
| 2026-05-04 13:15 | -19.73524 | -44.18497 | 6720 ft | 226 kts | 10° |
| 2026-05-04 13:15 | -19.71974 | -44.18242 | 6477 ft | 229 kts | 10° |
| 2026-05-04 13:15 | -19.70370 | -44.17978 | 6227 ft | 231 kts | 11° |
| 2026-05-04 13:16 | -19.68793 | -44.17720 | 5980 ft | 231 kts | 11° |
| 2026-05-04 13:16 | -19.67190 | -44.17456 | 5728 ft | 231 kts | 11° |
| 2026-05-04 13:16 | -19.65605 | -44.17194 | 5479 ft | 231 kts | 11° |
| 2026-05-04 13:16 | -19.64033 | -44.16935 | 5231 ft | 230 kts | 11° |
| 2026-05-04 13:17 | -19.62445 | -44.16673 | 4979 ft | 229 kts | 11° |
| 2026-05-04 13:17 | -19.60931 | -44.16280 | 4754 ft | 221 kts | 27° |
| 2026-05-04 13:17 | -19.59801 | -44.15289 | 4645 ft | 206 kts | 57° |
| 2026-05-04 13:17 | -19.59341 | -44.13906 | 4692 ft | 197 kts | 87° |
| 2026-05-04 13:18 | -19.59602 | -44.12487 | 4637 ft | 204 kts | 114° |
| 2026-05-04 13:18 | -19.60289 | -44.11185 | 4619 ft | 197 kts | 121° |
| 2026-05-04 13:18 | -19.60981 | -44.09939 | 4599 ft | 198 kts | 118° |
| 2026-05-04 13:18 | -19.61557 | -44.08568 | 4606 ft | 204 kts | 110° |
| 2026-05-04 13:19 | -19.61973 | -44.07140 | 4605 ft | 208 kts | 105° |
| 2026-05-04 13:19 | -19.62218 | -44.06143 | 4604 ft | 210 kts | 104° |
| 2026-05-04 13:19 | -19.62683 | -44.04117 | 4600 ft | 212 kts | 104° |
| 2026-05-04 13:19 | -19.63036 | -44.02580 | 4465 ft | 219 kts | 104° |
| 2026-05-04 13:20 | -19.63406 | -44.01009 | 4418 ft | 219 kts | 104° |
| 2026-05-04 13:20 | -19.63783 | -43.99460 | 4402 ft | 212 kts | 105° |
| 2026-05-04 13:20 | -19.64150 | -43.97975 | 4363 ft | 202 kts | 105° |
| 2026-05-04 13:20 | -19.64378 | -43.97058 | 4209 ft | 183 kts | 105° |
| 2026-05-04 13:21 | -19.64775 | -43.95468 | 3743 ft | 152 kts | 105° |
| 2026-05-04 13:21 | -19.64950 | -43.94762 | 3543 ft | 141 kts | 105° |
| 2026-05-04 13:21 | -19.65190 | -43.93803 | 3364 ft | 133 kts | 105° |
| 2026-05-04 13:21 | -19.65437 | -43.92815 | 3263 ft | 141 kts | 105° |
| 2026-05-04 13:22 | -19.65682 | -43.91828 | 3160 ft | 135 kts | 104° |
| 2026-05-04 13:22 | -19.65890 | -43.90919 | 2931 ft | 115 kts | 104° |
| 2026-05-04 13:22 | -19.66069 | -43.90185 | 2800 ft | 87 kts | 105° |
| 2026-05-04 13:22 | -19.66162 | -43.89810 | 2800 ft | 29 kts | 108° |
| 2026-05-04 13:23 | -19.66206 | -43.89633 | 2800 ft | 21 kts | 118° |
| 2026-05-04 13:23 | -19.66282 | -43.89600 | 2800 ft | 10 kts | 179° |
| 2026-05-04 13:23 | -19.66333 | -43.89567 | 2800 ft | 11 kts | 189° |
| 2026-05-04 13:23 | -19.66378 | -43.89576 | 2800 ft | 0 kts | 190° |